createdAt,value
2017-01-31T00:00:33.215Z,1.29
2017-01-31T00:06:43.343Z,1.28
2017-01-31T00:12:54.970Z,1.28
2017-01-31T00:46:35.482Z,1.23
2017-01-31T00:49:40.396Z,1.24
2017-01-31T00:52:45.622Z,1.24
2017-01-31T00:55:50.271Z,1.24
2017-01-31T00:58:50.245Z,1.22
2017-01-31T01:05:03.738Z,1.21
2017-01-31T01:08:04.405Z,1.22
2017-01-31T01:11:08.755Z,1.22
2017-01-31T01:14:08.488Z,1.22
2017-01-31T01:17:16.552Z,1.21
2017-01-31T01:20:21.673Z,1.22
2017-01-31T01:23:26.584Z,1.22
2017-01-31T01:26:31.563Z,1.23
2017-01-31T01:29:35.844Z,1.23
2017-01-31T01:32:33.859Z,1.23
2017-01-31T01:38:51.714Z,1.19
2017-01-31T01:41:55.574Z,1.20
2017-01-31T01:45:02.662Z,1.19
2017-01-31T01:48:06.954Z,1.18
2017-01-31T01:51:07.033Z,1.17
2017-01-31T01:54:17.443Z,1.16
2017-01-31T01:57:24.047Z,1.16
2017-01-31T02:00:25.453Z,1.17
2017-01-31T02:03:29.441Z,1.18
2017-01-31T02:09:40.760Z,1.18
2017-01-31T02:12:45.764Z,1.17
2017-01-31T02:15:49.646Z,1.16
2017-01-31T02:18:55.760Z,1.17
2017-01-31T02:21:48.616Z,1.17
2017-01-31T02:24:57.161Z,1.18
2017-01-31T02:40:22.941Z,1.17
2017-01-31T02:55:44.107Z,1.19
2017-01-31T03:35:35.440Z,1.14
2017-01-31T03:38:33.353Z,1.14
2017-01-31T03:41:43.854Z,1.16
2017-01-31T03:44:41.608Z,1.15
2017-01-31T03:47:46.162Z,1.15
2017-01-31T03:51:01.820Z,1.15
2017-01-31T03:53:53.482Z,1.16
2017-01-31T03:57:09.010Z,1.15
2017-01-31T04:00:11.541Z,1.15
2017-01-31T04:03:16.651Z,1.15
2017-01-31T04:06:16.117Z,1.15
2017-01-31T04:46:11.037Z,1.14
2017-01-31T04:49:21.612Z,1.14
2017-01-31T04:52:18.632Z,1.14
2017-01-31T04:55:34.348Z,1.12
2017-01-31T04:58:38.952Z,1.13
2017-01-31T05:01:41.152Z,1.13
2017-01-31T05:04:46.186Z,1.13
2017-01-31T05:07:50.676Z,1.13
2017-01-31T05:10:57.162Z,1.13
2017-01-31T05:16:58.184Z,1.14
2017-01-31T05:20:12.883Z,1.12
2017-01-31T05:23:15.397Z,1.10
2017-01-31T05:26:20.479Z,1.10
2017-01-31T05:29:25.214Z,1.11
2017-01-31T05:32:30.254Z,1.10
2017-01-31T05:35:25.214Z,1.10
2017-01-31T05:38:40.840Z,1.12
2017-01-31T05:41:45.196Z,1.13
2017-01-31T05:44:47.265Z,1.12
2017-01-31T05:47:52.398Z,1.13
2017-01-31T05:50:57.431Z,1.13
2017-01-31T05:54:02.443Z,1.12
2017-01-31T05:57:07.092Z,1.13
2017-01-31T06:00:13.672Z,1.12
2017-01-31T06:06:20.773Z,1.12
2017-01-31T06:09:18.438Z,1.12
2017-01-31T06:12:23.919Z,1.13
2017-01-31T06:15:33.970Z,1.12
2017-01-31T06:18:38.972Z,1.12
2017-01-31T06:24:50.988Z,1.13
2017-01-31T06:30:55.435Z,1.13
2017-01-31T06:33:54.998Z,1.13
2017-01-31T06:37:05.318Z,1.15
2017-01-31T06:40:10.105Z,1.16
2017-01-31T06:43:10.147Z,1.16
2017-01-31T06:46:15.649Z,1.17
2017-01-31T06:49:26.055Z,1.17
2017-01-31T06:52:31.158Z,1.17
2017-01-31T06:55:36.061Z,1.16
2017-01-31T06:58:40.244Z,1.15
2017-01-31T07:01:36.619Z,1.15
2017-01-31T07:07:49.766Z,1.14
2017-01-31T07:10:59.675Z,1.11
2017-01-31T07:13:58.979Z,1.12
2017-01-31T07:17:09.376Z,1.13
2017-01-31T07:20:13.935Z,1.14
2017-01-31T07:23:17.273Z,1.15
2017-01-31T07:26:24.213Z,1.16
2017-01-31T07:29:27.566Z,1.16
2017-01-31T07:41:41.018Z,1.20
2017-01-31T10:05:20.611Z,2.12
2017-01-31T10:14:32.090Z,2.15
2017-01-31T11:34:08.893Z,2.51
2017-01-31T12:38:20.668Z,3.04
2017-01-31T13:08:57.876Z,2.86
2017-01-31T13:12:03.151Z,2.92
2017-01-31T13:15:07.780Z,2.99
2017-01-31T13:18:12.736Z,3.03
2017-01-31T13:21:17.068Z,3.03
2017-01-31T13:27:25.386Z,3.06
2017-01-31T13:30:30.245Z,3.02
2017-01-31T13:36:39.892Z,3.04
2017-01-31T13:39:46.321Z,3.03
2017-01-31T13:42:50.979Z,3.04
2017-01-31T14:25:44.563Z,2.83
2017-01-31T14:28:44.116Z,2.79
2017-01-31T14:34:59.646Z,2.79
2017-01-31T14:38:04.585Z,2.75
2017-01-31T14:41:09.484Z,2.76
2017-01-31T14:44:16.633Z,2.77
2017-01-31T14:47:18.965Z,2.80
2017-01-31T14:50:23.546Z,2.76
2017-01-31T14:53:25.978Z,2.71
2017-01-31T14:56:31.228Z,2.65
2017-01-31T14:59:36.234Z,2.64
2017-01-31T15:02:41.691Z,2.63
2017-01-31T15:54:48.829Z,2.37
2017-01-31T15:57:53.614Z,2.36
2017-01-31T16:00:58.615Z,2.33
2017-01-31T16:03:54.833Z,2.29
2017-01-31T16:07:10.452Z,2.27
2017-01-31T16:10:15.087Z,2.28
2017-01-31T16:13:17.730Z,2.27
2017-01-31T16:16:22.498Z,2.23
2017-01-31T16:19:27.426Z,2.21
2017-01-31T16:22:33.258Z,2.22
2017-01-31T16:25:35.621Z,2.24
2017-01-31T16:28:41.476Z,2.24
2017-01-31T16:31:46.318Z,2.20
2017-01-31T16:34:38.523Z,2.19
2017-01-31T16:44:01.914Z,2.17
2017-01-31T19:38:36.641Z,1.85
2017-01-31T20:42:52.318Z,1.72
